createdAt,value
2017-08-14T00:02:11.482Z,17.35
2017-08-14T00:04:39.382Z,17.35
2017-08-14T00:07:07.688Z,17.33
2017-08-14T00:09:35.594Z,17.29
2017-08-14T00:12:03.496Z,17.24
2017-08-14T00:14:31.803Z,17.26
2017-08-14T00:16:59.699Z,17.27
2017-08-14T00:19:27.781Z,17.25
2017-08-14T00:21:55.688Z,17.13
2017-08-14T00:24:23.992Z,17.08
2017-08-14T00:26:51.904Z,17.11
2017-08-14T00:29:19.812Z,17.19
2017-08-14T00:31:47.719Z,17.15
2017-08-14T00:34:15.624Z,17.17
2017-08-14T00:36:43.984Z,17.11
2017-08-14T00:39:11.879Z,17.10
2017-08-14T00:41:40.504Z,17.11
2017-08-14T00:44:08.406Z,16.98
2017-08-14T00:46:36.307Z,16.96
2017-08-14T00:49:04.303Z,17.00
2017-08-14T00:51:32.460Z,16.96
2017-08-14T00:54:00.380Z,16.97
2017-08-14T00:56:28.292Z,16.93
2017-08-14T00:58:56.470Z,16.90
2017-08-14T01:01:24.366Z,16.89
2017-08-14T01:03:52.287Z,16.83
2017-08-14T01:06:20.484Z,16.91
2017-08-14T01:08:48.701Z,16.77
2017-08-14T01:11:16.608Z,16.87
2017-08-14T01:13:44.923Z,16.74
2017-08-14T01:16:12.831Z,16.83
2017-08-14T01:18:40.762Z,16.76
2017-08-14T01:21:08.671Z,16.73
2017-08-14T01:23:36.599Z,16.62
2017-08-14T01:26:05.338Z,16.59
2017-08-14T01:28:33.230Z,16.52
2017-08-14T01:31:01.532Z,16.52
2017-08-14T01:33:29.557Z,16.50
2017-08-14T01:35:57.468Z,16.53
2017-08-14T01:38:25.374Z,16.49
2017-08-14T01:40:53.497Z,16.37
2017-08-14T01:43:21.406Z,16.35
2017-08-14T01:45:49.457Z,16.38
2017-08-14T01:48:17.572Z,16.39
2017-08-14T01:50:45.479Z,16.35
2017-08-14T01:53:13.393Z,16.33
2017-08-14T01:55:41.336Z,16.29
2017-08-14T01:58:09.235Z,16.41
2017-08-14T02:00:37.465Z,16.31
2017-08-14T02:03:05.377Z,16.40
2017-08-14T02:05:33.295Z,16.43
2017-08-14T02:08:01.605Z,16.44
2017-08-14T02:10:29.702Z,16.44
2017-08-14T02:12:57.639Z,16.39
2017-08-14T02:15:25.542Z,16.43
2017-08-14T02:17:53.456Z,16.43
2017-08-14T02:20:21.752Z,16.60
2017-08-14T02:22:49.668Z,16.61
2017-08-14T02:25:17.566Z,16.70
2017-08-14T02:27:45.886Z,16.67
2017-08-14T02:30:13.800Z,16.77
2017-08-14T02:32:41.857Z,16.78
2017-08-14T02:35:10.166Z,16.87
2017-08-14T02:37:38.466Z,16.95
2017-08-14T02:40:06.371Z,16.90
2017-08-14T02:42:34.281Z,17.06
2017-08-14T02:45:02.588Z,17.10
2017-08-14T02:47:30.523Z,17.20
2017-08-14T02:49:59.122Z,17.27
2017-08-14T02:52:27.015Z,17.27
2017-08-14T02:54:54.919Z,17.26
2017-08-14T02:57:22.822Z,17.25
2017-08-14T02:59:51.168Z,17.32
2017-08-14T03:02:19.066Z,17.36
2017-08-14T03:04:47.242Z,17.39
2017-08-14T03:07:15.146Z,17.32
2017-08-14T03:09:43.052Z,17.30
2017-08-14T03:12:11.012Z,17.40
2017-08-14T03:14:38.914Z,17.41
2017-08-14T03:17:07.249Z,17.37
2017-08-14T03:19:35.147Z,17.39
2017-08-14T03:22:03.702Z,17.30
2017-08-14T03:24:31.599Z,17.36
2017-08-14T03:26:59.904Z,17.28
2017-08-14T03:29:27.832Z,17.32
2017-08-14T03:31:55.790Z,17.16
2017-08-14T03:34:23.708Z,17.01
2017-08-14T03:36:51.620Z,16.93
2017-08-14T03:39:19.535Z,16.81
2017-08-14T03:41:47.856Z,16.78
2017-08-14T03:44:15.773Z,16.71
2017-08-14T03:46:44.072Z,16.73
2017-08-14T03:49:11.996Z,16.65
2017-08-14T03:51:39.908Z,16.65
2017-08-14T03:54:07.993Z,16.57
2017-08-14T03:56:35.902Z,16.61
2017-08-14T03:59:03.794Z,16.58
2017-08-14T04:01:32.124Z,16.58
2017-08-14T04:04:00.028Z,16.52
2017-08-14T04:06:27.978Z,16.51
2017-08-14T04:08:55.892Z,16.56
2017-08-14T04:11:24.187Z,16.58
2017-08-14T04:13:52.102Z,16.66
2017-08-14T04:16:20.002Z,16.69
2017-08-14T04:18:48.311Z,16.68
2017-08-14T04:21:16.210Z,16.79
2017-08-14T04:23:44.115Z,16.74
2017-08-14T04:26:12.567Z,16.66
2017-08-14T04:28:40.461Z,16.73
2017-08-14T04:31:08.756Z,16.83
2017-08-14T04:33:36.662Z,17.08
2017-08-14T04:36:04.577Z,17.31
2017-08-14T04:38:32.883Z,17.41
2017-08-14T04:41:00.788Z,17.48
2017-08-14T04:43:28.694Z,17.60
2017-08-14T04:45:57.001Z,17.43
2017-08-14T04:48:24.919Z,17.68
2017-08-14T04:50:52.823Z,17.90
2017-08-14T04:53:20.733Z,18.45
2017-08-14T04:55:48.630Z,19.30
2017-08-14T04:58:16.689Z,19.80
2017-08-14T05:00:44.585Z,20.65
2017-08-14T05:03:12.882Z,21.72
2017-08-14T05:05:40.807Z,22.47
2017-08-14T05:08:09.136Z,23.78
2017-08-14T05:10:37.056Z,24.29
2017-08-14T05:13:04.946Z,25.01
2017-08-14T05:15:33.518Z,25.15
2017-08-14T05:18:01.414Z,25.24
2017-08-14T05:20:29.316Z,24.37
2017-08-14T05:22:57.218Z,25.45
2017-08-14T05:25:25.137Z,25.47
2017-08-14T05:27:53.068Z,25.71
2017-08-14T05:30:20.959Z,26.04
2017-08-14T05:32:48.898Z,26.73
2017-08-14T05:35:16.800Z,26.93
2017-08-14T05:37:44.719Z,27.09
2017-08-14T05:40:12.623Z,26.23
2017-08-14T05:42:41.062Z,26.61
2017-08-14T05:45:08.967Z,26.94
2017-08-14T05:47:36.863Z,27.67
2017-08-14T05:50:04.774Z,27.50
2017-08-14T05:52:32.666Z,27.88
2017-08-14T05:55:01.020Z,28.68
2017-08-14T05:57:28.931Z,29.40
2017-08-14T05:59:57.303Z,30.72
2017-08-14T06:02:25.656Z,29.35
2017-08-14T06:04:54.018Z,30.31
2017-08-14T06:07:22.358Z,29.23
2017-08-14T06:09:50.767Z,30.04
2017-08-14T06:12:19.399Z,31.05
2017-08-14T06:14:47.751Z,30.65
2017-08-14T06:17:16.104Z,30.48
2017-08-14T06:19:44.461Z,30.24
2017-08-14T06:22:12.803Z,30.97
2017-08-14T06:24:41.168Z,30.28
2017-08-14T06:27:09.515Z,31.77
2017-08-14T06:29:37.863Z,33.32
2017-08-14T06:32:06.680Z,33.10
2017-08-14T06:34:35.033Z,33.32
2017-08-14T06:37:03.770Z,34.41
2017-08-14T06:39:32.128Z,32.59
2017-08-14T06:42:00.470Z,32.28
2017-08-14T06:44:29.414Z,31.35
2017-08-14T06:46:57.771Z,32.12
2017-08-14T06:49:26.111Z,32.32
2017-08-14T06:51:54.463Z,31.78
2017-08-14T06:54:22.817Z,31.83
2017-08-14T06:56:51.181Z,32.19
2017-08-14T06:59:19.528Z,32.44
2017-08-14T07:01:47.888Z,32.45
2017-08-14T07:04:16.237Z,32.99
2017-08-14T07:06:44.587Z,33.48
2017-08-14T07:09:12.952Z,33.25
2017-08-14T07:11:41.701Z,32.99
2017-08-14T07:14:10.048Z,33.56
2017-08-14T07:16:38.394Z,34.30
2017-08-14T07:19:07.338Z,33.79
2017-08-14T07:21:35.689Z,33.89
2017-08-14T07:24:04.086Z,34.57
2017-08-14T07:26:32.451Z,36.20
2017-08-14T07:29:00.801Z,34.69
2017-08-14T07:31:29.160Z,35.08
2017-08-14T07:33:57.507Z,35.17
2017-08-14T07:36:25.859Z,36.55
2017-08-14T07:38:54.207Z,35.27
2017-08-14T07:41:22.572Z,33.50
2017-08-14T07:43:50.907Z,33.95
2017-08-14T07:46:19.256Z,34.49
2017-08-14T07:48:47.995Z,34.23
2017-08-14T07:51:16.331Z,34.81
2017-08-14T07:53:45.187Z,35.04
2017-08-14T07:56:13.531Z,35.12
2017-08-14T07:58:41.895Z,33.90
2017-08-14T08:01:10.240Z,33.24
2017-08-14T08:03:38.607Z,33.62
2017-08-14T08:06:06.959Z,34.71
2017-08-14T08:08:35.315Z,36.08
2017-08-14T08:11:03.655Z,35.23
2017-08-14T08:13:32.012Z,36.57
2017-08-14T08:16:00.468Z,34.40
2017-08-14T08:18:28.823Z,33.80
2017-08-14T08:20:57.567Z,35.13
2017-08-14T08:23:25.913Z,35.30
2017-08-14T08:25:54.263Z,35.28
2017-08-14T08:28:23.009Z,35.85
2017-08-14T08:30:51.659Z,34.75
2017-08-14T08:33:20.311Z,34.24
2017-08-14T08:35:49.044Z,34.10
2017-08-14T08:38:17.395Z,34.40
2017-08-14T08:40:46.141Z,36.00
2017-08-14T08:43:14.906Z,35.48
2017-08-14T08:45:43.265Z,35.99
2017-08-14T08:48:11.623Z,37.34
2017-08-14T08:50:40.363Z,37.30
2017-08-14T08:53:09.038Z,37.04
2017-08-14T08:55:37.379Z,38.40
2017-08-14T08:58:06.129Z,38.39
2017-08-14T09:00:34.483Z,37.78
2017-08-14T09:03:02.833Z,37.86
2017-08-14T09:05:31.500Z,37.39
2017-08-14T09:08:00.249Z,37.11
2017-08-14T09:10:28.603Z,35.28
2017-08-14T09:12:57.250Z,32.95
2017-08-14T09:15:25.603Z,33.17
2017-08-14T09:17:53.957Z,35.27
2017-08-14T09:20:22.420Z,37.16
2017-08-14T09:22:50.764Z,37.86
2017-08-14T09:25:19.769Z,38.59
2017-08-14T09:27:48.515Z,36.89
2017-08-14T09:30:16.855Z,35.92
2017-08-14T09:32:45.212Z,35.20
2017-08-14T09:35:13.950Z,34.25
2017-08-14T09:37:42.312Z,32.58
2017-08-14T09:40:10.652Z,33.13
2017-08-14T09:42:39.017Z,32.10
2017-08-14T09:45:07.359Z,32.75
2017-08-14T09:47:35.703Z,33.50
2017-08-14T09:50:04.441Z,34.79
2017-08-14T09:52:33.119Z,34.76
2017-08-14T09:55:01.463Z,34.66
2017-08-14T09:57:30.130Z,35.58
2017-08-14T09:59:58.888Z,36.05
2017-08-14T10:02:27.237Z,33.28
2017-08-14T10:04:55.609Z,33.17
2017-08-14T10:07:23.969Z,32.27
2017-08-14T10:09:52.732Z,32.06
2017-08-14T10:12:21.083Z,33.09
2017-08-14T10:14:51.044Z,33.45
2017-08-14T10:17:19.780Z,33.51
2017-08-14T10:19:48.373Z,35.33
2017-08-14T10:22:16.715Z,34.13
2017-08-14T10:24:45.068Z,34.00
2017-08-14T10:27:13.410Z,34.37
2017-08-14T10:29:41.756Z,34.43
2017-08-14T10:32:10.098Z,34.78
2017-08-14T10:34:38.458Z,34.50
2017-08-14T10:37:07.128Z,34.13
2017-08-14T10:39:35.478Z,34.16
2017-08-14T10:42:03.841Z,34.91
2017-08-14T10:44:32.215Z,36.01
2017-08-14T10:47:00.964Z,34.68
2017-08-14T10:49:29.327Z,35.16
2017-08-14T10:51:57.684Z,36.03
2017-08-14T10:54:26.035Z,35.09
2017-08-14T10:56:54.770Z,32.53
2017-08-14T10:59:23.265Z,30.47
2017-08-14T11:01:51.612Z,29.49
2017-08-14T11:04:19.972Z,28.64
2017-08-14T11:06:48.314Z,28.71
2017-08-14T11:09:16.664Z,28.13
2017-08-14T11:11:45.029Z,29.23
2017-08-14T11:14:13.371Z,28.57
2017-08-14T11:16:41.719Z,28.74
2017-08-14T11:19:10.072Z,27.72
2017-08-14T11:21:38.424Z,28.06
2017-08-14T11:24:07.161Z,28.05
2017-08-14T11:26:35.734Z,28.69
2017-08-14T11:29:04.074Z,28.88
2017-08-14T11:31:32.424Z,28.71
2017-08-14T11:34:00.780Z,27.81
2017-08-14T11:36:29.133Z,27.51
2017-08-14T11:38:57.483Z,27.53
2017-08-14T11:41:26.222Z,27.10
2017-08-14T11:43:54.575Z,27.16
2017-08-14T11:46:22.925Z,26.76
2017-08-14T11:48:51.266Z,26.37
2017-08-14T11:51:19.893Z,26.64
2017-08-14T11:53:48.833Z,26.46
2017-08-14T11:56:17.175Z,26.33
2017-08-14T11:58:45.921Z,26.29
2017-08-14T12:01:14.281Z,26.38
2017-08-14T12:03:42.632Z,26.54
2017-08-14T12:06:10.978Z,26.47
2017-08-14T12:08:39.333Z,26.07
2017-08-14T12:11:07.682Z,25.90
2017-08-14T12:13:36.022Z,25.97
2017-08-14T12:16:04.767Z,26.16
2017-08-14T12:18:33.123Z,26.15
2017-08-14T12:21:01.611Z,26.20
2017-08-14T12:23:29.954Z,25.89
2017-08-14T12:25:58.700Z,25.85
2017-08-14T12:28:27.079Z,25.64
2017-08-14T12:30:55.424Z,25.59
2017-08-14T12:33:23.846Z,25.41
2017-08-14T12:35:52.197Z,25.44
2017-08-14T12:38:20.557Z,25.70
2017-08-14T12:40:48.980Z,26.03
2017-08-14T12:43:17.332Z,26.12
2017-08-14T12:45:45.676Z,26.21
2017-08-14T12:48:14.615Z,26.65
2017-08-14T12:50:43.639Z,26.83
2017-08-14T12:53:11.986Z,27.03
2017-08-14T12:55:40.340Z,27.32
2017-08-14T12:58:08.697Z,27.61
2017-08-14T13:00:37.051Z,26.80
2017-08-14T13:03:05.623Z,26.75
2017-08-14T13:05:33.981Z,26.46
2017-08-14T13:08:02.322Z,26.47
2017-08-14T13:10:31.080Z,26.87
2017-08-14T13:12:59.418Z,27.06
2017-08-14T13:15:27.980Z,26.62
2017-08-14T13:17:56.963Z,26.93
2017-08-14T13:20:25.687Z,26.97
2017-08-14T13:22:54.056Z,26.69
2017-08-14T13:25:22.474Z,26.69
2017-08-14T13:27:50.819Z,26.61
2017-08-14T13:30:19.159Z,26.13
2017-08-14T13:32:47.527Z,26.12
2017-08-14T13:35:15.876Z,25.91
2017-08-14T13:37:44.229Z,25.64
2017-08-14T13:40:12.580Z,25.61
2017-08-14T13:42:40.941Z,25.83
2017-08-14T13:45:09.549Z,25.89
2017-08-14T13:47:38.490Z,25.92
2017-08-14T13:50:06.849Z,25.98
2017-08-14T13:52:35.202Z,25.80
2017-08-14T13:55:03.960Z,25.87
2017-08-14T13:57:32.303Z,25.95
2017-08-14T14:00:00.653Z,25.95
2017-08-14T14:02:29.389Z,25.92
2017-08-14T14:04:57.749Z,25.81
2017-08-14T14:07:26.100Z,25.93
2017-08-14T14:09:54.844Z,26.06
2017-08-14T14:12:23.182Z,26.05
2017-08-14T14:14:51.635Z,26.22
2017-08-14T14:17:20.378Z,26.21
2017-08-14T14:19:48.729Z,26.12
2017-08-14T14:22:17.089Z,26.18
2017-08-14T14:24:45.829Z,26.31
2017-08-14T14:27:14.169Z,26.15
2017-08-14T14:29:42.524Z,25.93
2017-08-14T14:32:10.885Z,25.63
2017-08-14T14:34:39.224Z,25.68
2017-08-14T14:37:07.578Z,25.73
2017-08-14T14:39:36.316Z,25.89
2017-08-14T14:42:04.991Z,25.84
2017-08-14T14:44:33.340Z,25.56
2017-08-14T14:47:01.670Z,25.55
2017-08-14T14:49:30.032Z,25.73
2017-08-14T14:51:58.376Z,25.52
2017-08-14T14:54:26.723Z,25.46
2017-08-14T14:56:55.072Z,25.18
2017-08-14T14:59:23.423Z,25.29
2017-08-14T15:01:51.888Z,25.44
2017-08-14T15:04:20.628Z,25.71
2017-08-14T15:06:49.070Z,25.54
2017-08-14T15:09:17.583Z,25.63
2017-08-14T15:11:45.936Z,25.71
2017-08-14T15:14:14.278Z,26.05
2017-08-14T15:16:42.632Z,25.83
2017-08-14T15:19:10.966Z,25.98
2017-08-14T15:21:39.323Z,25.86
2017-08-14T15:24:08.057Z,25.49
2017-08-14T15:26:36.429Z,25.52
2017-08-14T15:29:04.776Z,25.47
2017-08-14T15:31:33.721Z,25.30
2017-08-14T15:34:02.059Z,25.64
2017-08-14T15:36:30.395Z,25.49
2017-08-14T15:38:58.757Z,25.45
2017-08-14T15:41:27.126Z,25.40
2017-08-14T15:43:55.500Z,25.38
2017-08-14T15:46:23.849Z,25.40
2017-08-14T15:48:52.600Z,25.33
2017-08-14T15:51:20.952Z,25.40
2017-08-14T15:53:49.321Z,25.19
2017-08-14T15:56:17.668Z,25.05
2017-08-14T15:58:46.598Z,25.12
2017-08-14T16:01:14.952Z,25.03
2017-08-14T16:03:43.295Z,25.04
2017-08-14T16:06:11.657Z,25.22
2017-08-14T16:08:39.999Z,24.99
2017-08-14T16:11:08.356Z,25.04
2017-08-14T16:13:37.101Z,24.89
2017-08-14T16:16:05.451Z,24.80
2017-08-14T16:18:33.798Z,24.70
2017-08-14T16:21:02.539Z,24.62
2017-08-14T16:23:30.890Z,24.54
2017-08-14T16:25:59.408Z,24.42
2017-08-14T16:28:27.750Z,24.44
2017-08-14T16:30:56.104Z,24.24
2017-08-14T16:33:24.860Z,24.40
2017-08-14T16:35:53.218Z,24.36
2017-08-14T16:38:21.579Z,24.28
2017-08-14T16:40:49.928Z,24.34
2017-08-14T16:43:18.274Z,24.39
2017-08-14T16:45:46.610Z,24.36
2017-08-14T16:48:14.952Z,24.45
2017-08-14T16:50:43.299Z,24.57
2017-08-14T16:53:11.656Z,24.39
2017-08-14T16:55:40.162Z,24.33
2017-08-14T16:58:08.537Z,24.46
2017-08-14T17:00:36.888Z,24.36
2017-08-14T17:03:05.231Z,24.47
2017-08-14T17:05:33.584Z,24.34
2017-08-14T17:08:01.936Z,24.31
2017-08-14T17:10:30.278Z,24.36
2017-08-14T17:12:59.019Z,24.24
2017-08-14T17:15:27.371Z,24.25
2017-08-14T17:17:55.741Z,24.08
2017-08-14T17:20:24.080Z,24.12
2017-08-14T17:22:52.631Z,23.96
2017-08-14T17:25:20.976Z,23.92
2017-08-14T17:27:49.323Z,23.72
2017-08-14T17:30:17.680Z,23.83
2017-08-14T17:32:46.031Z,23.83
2017-08-14T17:35:14.439Z,23.76
2017-08-14T17:37:42.797Z,23.80
2017-08-14T17:40:11.148Z,23.64
2017-08-14T17:42:39.905Z,23.67
2017-08-14T17:45:08.268Z,23.62
2017-08-14T17:47:36.612Z,23.54
2017-08-14T17:50:04.955Z,23.51
2017-08-14T17:52:33.295Z,23.50
2017-08-14T17:55:01.779Z,23.37
2017-08-14T17:57:30.140Z,23.43
2017-08-14T17:59:58.474Z,23.38
2017-08-14T18:02:26.818Z,23.32
2017-08-14T18:04:55.200Z,23.30
2017-08-14T18:07:23.558Z,23.30
2017-08-14T18:09:51.959Z,23.39
2017-08-14T18:12:20.315Z,23.34
2017-08-14T18:14:48.662Z,23.30
2017-08-14T18:17:17.516Z,23.18
2017-08-14T18:19:45.876Z,23.12
2017-08-14T18:22:14.259Z,23.04
2017-08-14T18:24:42.620Z,22.99
2017-08-14T18:27:10.980Z,22.88
2017-08-14T18:29:39.737Z,22.75
2017-08-14T18:32:08.079Z,22.67
2017-08-14T18:34:36.431Z,22.63
2017-08-14T18:37:04.775Z,22.60
2017-08-14T18:39:33.129Z,22.54
2017-08-14T18:42:01.479Z,22.44
2017-08-14T18:44:29.815Z,22.31
2017-08-14T18:46:58.162Z,22.26
2017-08-14T18:49:26.506Z,22.18
2017-08-14T18:51:55.015Z,22.16
2017-08-14T18:54:23.368Z,22.01
2017-08-14T18:56:51.725Z,22.03
2017-08-14T18:59:20.480Z,21.93
2017-08-14T19:01:48.831Z,21.89
2017-08-14T19:04:17.227Z,21.92
2017-08-14T19:06:45.594Z,21.75
2017-08-14T19:09:15.308Z,21.73
2017-08-14T19:11:42.351Z,21.69
2017-08-14T19:14:10.721Z,21.63
2017-08-14T19:16:39.067Z,21.59
2017-08-14T19:19:07.819Z,21.50
2017-08-14T19:21:36.170Z,21.40
2017-08-14T19:24:04.679Z,21.45
2017-08-14T19:26:33.303Z,21.38
2017-08-14T19:29:02.059Z,21.35
2017-08-14T19:31:30.420Z,21.38
2017-08-14T19:33:58.764Z,21.30
2017-08-14T19:36:27.121Z,21.24
2017-08-14T19:38:55.467Z,21.20
2017-08-14T19:41:23.836Z,21.21
2017-08-14T19:43:52.190Z,21.16
2017-08-14T19:46:20.821Z,21.16
2017-08-14T19:48:49.173Z,21.00
2017-08-14T19:51:17.516Z,20.94
2017-08-14T19:53:46.276Z,20.95
2017-08-14T19:56:14.629Z,20.86
2017-08-14T19:58:42.987Z,20.91
2017-08-14T20:01:11.336Z,20.82
2017-08-14T20:03:40.098Z,20.73
2017-08-14T20:06:08.444Z,20.61
2017-08-14T20:08:36.805Z,20.60
2017-08-14T20:11:05.144Z,20.51
2017-08-14T20:13:33.618Z,20.52
2017-08-14T20:16:02.240Z,20.51
2017-08-14T20:18:30.593Z,20.47
2017-08-14T20:20:59.191Z,20.51
2017-08-14T20:23:27.932Z,20.40
2017-08-14T20:25:56.724Z,20.30
2017-08-14T20:28:25.078Z,20.29
2017-08-14T20:30:53.424Z,20.25
2017-08-14T20:33:21.776Z,20.22
2017-08-14T20:35:50.135Z,20.16
2017-08-14T20:38:18.483Z,20.19
2017-08-14T20:40:46.819Z,20.13
2017-08-14T20:43:15.168Z,19.99
2017-08-14T20:45:43.521Z,19.88
2017-08-14T20:48:11.874Z,19.96
2017-08-14T20:50:40.233Z,19.89
2017-08-14T20:53:08.764Z,19.72
2017-08-14T20:55:37.109Z,19.73
2017-08-14T20:58:05.464Z,19.76
2017-08-14T21:00:33.817Z,19.66
2017-08-14T21:03:02.159Z,19.64
2017-08-14T21:05:30.902Z,19.66
2017-08-14T21:07:59.257Z,19.60
2017-08-14T21:10:27.632Z,19.52
2017-08-14T21:12:55.980Z,19.52
2017-08-14T21:15:24.349Z,19.46
2017-08-14T21:17:52.687Z,19.52
2017-08-14T21:20:21.052Z,19.48
2017-08-14T21:22:49.412Z,19.37
2017-08-14T21:25:18.741Z,19.41
2017-08-14T21:27:47.093Z,19.39
2017-08-14T21:30:15.456Z,19.39
2017-08-14T21:32:44.216Z,19.35
2017-08-14T21:35:12.573Z,19.38
2017-08-14T21:37:40.922Z,19.41
2017-08-14T21:40:09.281Z,19.27
2017-08-14T21:42:37.632Z,19.25
2017-08-14T21:45:05.987Z,19.25
2017-08-14T21:47:34.586Z,19.24
2017-08-14T21:50:02.941Z,19.22
2017-08-14T21:52:31.292Z,19.14
2017-08-14T21:55:00.044Z,19.15
2017-08-14T21:57:28.388Z,19.00
2017-08-14T21:59:56.747Z,18.97
2017-08-14T22:02:25.488Z,19.03
2017-08-14T22:04:53.836Z,19.01
2017-08-14T22:07:22.175Z,18.96
2017-08-14T22:09:50.927Z,18.93
2017-08-14T22:12:20.013Z,18.84
2017-08-14T22:14:48.556Z,18.81
2017-08-14T22:17:17.304Z,18.83
2017-08-14T22:19:45.657Z,18.73
2017-08-14T22:22:14.016Z,18.75
2017-08-14T22:24:42.350Z,18.66
2017-08-14T22:27:10.713Z,18.64
2017-08-14T22:29:39.069Z,18.68
2017-08-14T22:32:07.692Z,18.60
2017-08-14T22:34:36.051Z,18.66
2017-08-14T22:37:04.381Z,18.48
2017-08-14T22:39:32.797Z,18.47
2017-08-14T22:42:01.143Z,18.45
2017-08-14T22:44:29.895Z,18.43
2017-08-14T22:46:58.235Z,18.40
2017-08-14T22:49:26.617Z,18.32
2017-08-14T22:51:55.888Z,18.24
2017-08-14T22:54:24.412Z,18.27
2017-08-14T22:56:52.756Z,18.23
2017-08-14T22:59:21.508Z,18.28
2017-08-14T23:01:49.864Z,18.27
2017-08-14T23:04:18.212Z,18.24
2017-08-14T23:06:46.559Z,18.24
2017-08-14T23:09:14.905Z,18.23
2017-08-14T23:11:43.255Z,18.23
2017-08-14T23:14:11.594Z,18.15
2017-08-14T23:16:39.956Z,18.11
2017-08-14T23:19:08.304Z,18.08
2017-08-14T23:21:36.804Z,18.06
2017-08-14T23:24:05.161Z,18.04
2017-08-14T23:26:33.507Z,18.07
2017-08-14T23:29:02.251Z,18.05
2017-08-14T23:31:30.604Z,18.03
2017-08-14T23:33:58.970Z,18.00
2017-08-14T23:36:27.317Z,17.99
2017-08-14T23:38:55.981Z,17.96
2017-08-14T23:41:24.342Z,17.92
2017-08-14T23:43:52.691Z,17.86
2017-08-14T23:46:21.038Z,17.87
2017-08-14T23:48:49.388Z,17.96
2017-08-14T23:51:17.745Z,17.88
2017-08-14T23:53:46.097Z,17.88
2017-08-14T23:56:14.450Z,17.83
2017-08-14T23:58:42.801Z,17.75
